createdAt,value
2019-05-11T00:00:34.120Z,14.89
2019-05-11T00:03:02.800Z,14.97
2019-05-11T00:05:31.406Z,14.66
2019-05-11T00:07:59.936Z,14.81
2019-05-11T00:10:28.544Z,14.84
2019-05-11T00:12:57.050Z,14.87
2019-05-11T00:15:25.439Z,14.95
2019-05-11T00:17:54.147Z,14.82
2019-05-11T00:20:22.639Z,14.84
2019-05-11T00:22:51.260Z,14.89
2019-05-11T00:25:19.859Z,14.79
2019-05-11T00:27:48.424Z,14.75
2019-05-11T00:30:16.902Z,14.70
2019-05-11T00:32:45.473Z,14.81
2019-05-11T00:35:13.958Z,14.73
2019-05-11T00:37:42.465Z,14.91
2019-05-11T00:40:14.401Z,14.70
2019-05-11T00:42:41.409Z,14.68
2019-05-11T00:45:10.123Z,14.66
2019-05-11T00:47:38.618Z,14.68
2019-05-11T00:50:07.356Z,14.68
2019-05-11T00:52:35.982Z,14.73
2019-05-11T00:55:04.730Z,14.68
2019-05-11T00:57:33.265Z,14.69
2019-05-11T01:00:01.838Z,14.69
2019-05-11T01:02:30.542Z,14.72
2019-05-11T01:04:59.052Z,14.83
2019-05-11T01:07:27.647Z,14.92
2019-05-11T01:09:56.314Z,14.97
2019-05-11T01:12:24.863Z,14.85
2019-05-11T01:14:53.377Z,14.84
2019-05-11T01:17:21.765Z,14.86
2019-05-11T01:19:50.551Z,14.80
2019-05-11T01:22:19.121Z,14.85
2019-05-11T01:24:47.603Z,14.63
2019-05-11T01:27:16.214Z,14.29
2019-05-11T01:29:44.737Z,14.16
2019-05-11T01:32:13.281Z,14.08
2019-05-11T01:34:41.841Z,14.01
2019-05-11T01:37:10.425Z,14.02
2019-05-11T01:39:38.940Z,14.25
2019-05-11T01:42:07.562Z,14.20
2019-05-11T01:44:36.121Z,14.21
2019-05-11T01:47:04.521Z,13.99
2019-05-11T01:49:33.134Z,13.99
2019-05-11T01:52:01.615Z,13.88
2019-05-11T01:54:30.097Z,13.97
2019-05-11T01:56:58.565Z,14.08
2019-05-11T01:59:27.055Z,14.32
2019-05-11T02:01:55.668Z,13.98
2019-05-11T02:04:24.168Z,14.13
2019-05-11T02:06:52.667Z,13.88
2019-05-11T02:09:21.054Z,13.81
2019-05-11T02:11:49.754Z,13.67
2019-05-11T02:14:18.414Z,13.78
2019-05-11T02:16:47.065Z,13.59
2019-05-11T02:19:15.731Z,13.73
2019-05-11T02:21:44.440Z,13.71
2019-05-11T02:24:12.923Z,13.69
2019-05-11T02:26:41.468Z,13.57
2019-05-11T02:29:10.026Z,13.67
2019-05-11T02:31:38.612Z,13.60
2019-05-11T02:34:07.119Z,13.53
2019-05-11T02:36:35.695Z,13.49
2019-05-11T02:39:05.973Z,13.57
2019-05-11T02:41:37.169Z,13.42
2019-05-11T02:44:05.357Z,13.62
2019-05-11T02:46:33.911Z,13.59
2019-05-11T02:49:02.543Z,13.54
2019-05-11T02:51:32.261Z,13.39
2019-05-11T02:54:01.854Z,13.27
2019-05-11T02:56:30.435Z,13.30
2019-05-11T02:58:59.056Z,13.33
2019-05-11T03:01:27.655Z,13.26
2019-05-11T03:03:56.189Z,13.31
2019-05-11T03:06:24.753Z,13.31
2019-05-11T03:08:53.354Z,13.25
2019-05-11T03:11:21.915Z,13.18
2019-05-11T03:13:50.394Z,13.07
2019-05-11T03:16:18.813Z,13.06
2019-05-11T03:18:47.442Z,12.93
2019-05-11T03:21:15.948Z,12.81
2019-05-11T03:23:44.444Z,12.75
2019-05-11T03:26:13.064Z,12.83
2019-05-11T03:28:41.686Z,13.01
2019-05-11T03:31:10.201Z,13.09
2019-05-11T03:33:38.990Z,13.04
2019-05-11T03:36:07.617Z,13.14
2019-05-11T03:38:36.120Z,12.98
2019-05-11T03:41:04.761Z,13.08
2019-05-11T03:43:33.374Z,13.18
2019-05-11T03:46:01.922Z,13.10
2019-05-11T03:48:30.521Z,12.98
2019-05-11T03:50:58.946Z,13.13
2019-05-11T03:53:27.650Z,13.17
2019-05-11T03:55:56.174Z,13.04
2019-05-11T03:58:26.313Z,13.06
2019-05-11T04:00:55.086Z,13.19
2019-05-11T04:03:23.594Z,13.20
2019-05-11T04:05:52.200Z,13.04
2019-05-11T04:08:20.682Z,13.12
2019-05-11T04:10:49.234Z,13.04
2019-05-11T04:13:17.720Z,13.16
2019-05-11T04:15:46.236Z,13.22
2019-05-11T04:18:14.849Z,13.29
2019-05-11T04:20:43.341Z,13.42
2019-05-11T04:23:11.846Z,13.64
2019-05-11T04:25:40.348Z,13.78
2019-05-11T04:28:08.832Z,13.69
2019-05-11T04:30:37.366Z,13.72
2019-05-11T04:33:05.943Z,13.70
2019-05-11T04:35:34.455Z,13.77
2019-05-11T04:38:03.066Z,13.78
2019-05-11T04:40:31.662Z,14.03
2019-05-11T04:43:00.269Z,14.00
2019-05-11T04:45:28.740Z,14.02
2019-05-11T04:47:57.247Z,14.17
2019-05-11T04:50:25.732Z,14.25
2019-05-11T04:52:54.242Z,14.18
2019-05-11T04:55:22.745Z,14.37
2019-05-11T04:57:51.332Z,14.57
2019-05-11T05:00:20.087Z,14.58
2019-05-11T05:02:48.654Z,14.81
2019-05-11T05:05:17.251Z,14.76
2019-05-11T05:07:48.797Z,14.82
2019-05-11T05:10:19.939Z,15.13
2019-05-11T05:12:51.639Z,15.35
2019-05-11T05:15:17.817Z,15.30
2019-05-11T05:17:46.346Z,15.37
2019-05-11T05:20:14.883Z,15.70
2019-05-11T05:22:43.463Z,15.47
2019-05-11T05:25:13.806Z,15.72
2019-05-11T05:27:42.329Z,15.70
2019-05-11T05:30:11.348Z,15.74
2019-05-11T05:32:40.096Z,15.84
2019-05-11T05:35:09.236Z,16.00
2019-05-11T05:37:37.712Z,15.97
2019-05-11T05:40:06.606Z,16.07
2019-05-11T05:42:35.232Z,16.21
2019-05-11T05:45:04.164Z,16.19
2019-05-11T05:47:32.675Z,16.32
2019-05-11T05:50:01.288Z,16.38
2019-05-11T05:52:29.997Z,16.38
2019-05-11T05:54:58.532Z,16.41
2019-05-11T05:57:27.237Z,16.41
2019-05-11T05:59:55.692Z,16.19
2019-05-11T06:02:24.316Z,16.18
2019-05-11T06:04:52.919Z,16.25
2019-05-11T06:07:21.548Z,16.47
2019-05-11T06:09:50.136Z,16.53
2019-05-11T06:12:18.832Z,16.62
2019-05-11T06:14:47.425Z,16.78
2019-05-11T06:17:15.930Z,16.89
2019-05-11T06:19:44.452Z,16.82
2019-05-11T06:22:13.087Z,16.93
2019-05-11T06:24:41.515Z,17.07
2019-05-11T06:27:10.143Z,17.10
2019-05-11T06:29:38.556Z,17.16
2019-05-11T06:32:07.250Z,17.22
2019-05-11T06:34:35.890Z,17.31
2019-05-11T06:37:04.305Z,17.39
2019-05-11T06:39:32.803Z,17.43
2019-05-11T06:42:01.310Z,17.52
2019-05-11T06:44:29.904Z,17.69
2019-05-11T06:46:58.408Z,17.78
2019-05-11T06:49:26.918Z,17.88
2019-05-11T06:51:55.536Z,17.94
2019-05-11T06:54:24.142Z,18.00
2019-05-11T06:56:52.682Z,18.20
2019-05-11T06:59:21.262Z,18.21
2019-05-11T07:01:49.869Z,18.20
2019-05-11T07:04:18.450Z,18.25
2019-05-11T07:06:47.068Z,18.34
2019-05-11T07:09:15.554Z,18.47
2019-05-11T07:11:44.034Z,18.63
2019-05-11T07:14:20.722Z,18.72
2019-05-11T07:16:43.006Z,18.88
2019-05-11T07:19:11.417Z,18.87
2019-05-11T07:21:39.894Z,18.95
2019-05-11T07:24:08.511Z,19.02
2019-05-11T07:26:37.102Z,19.04
2019-05-11T07:29:05.683Z,19.06
2019-05-11T07:31:34.101Z,19.12
2019-05-11T07:34:02.581Z,19.22
2019-05-11T07:36:31.099Z,19.15
2019-05-11T07:38:59.691Z,19.33
2019-05-11T07:41:28.359Z,19.45
2019-05-11T07:43:59.017Z,19.40
2019-05-11T07:46:28.840Z,19.51
2019-05-11T07:48:58.421Z,19.61
2019-05-11T07:51:28.729Z,19.64
2019-05-11T07:53:57.931Z,19.68
2019-05-11T07:56:28.559Z,19.64
2019-05-11T07:58:58.021Z,19.68
2019-05-11T08:01:28.230Z,19.61
2019-05-11T08:03:58.588Z,19.47
2019-05-11T08:06:28.618Z,19.56
2019-05-11T08:08:58.746Z,19.83
2019-05-11T08:11:30.749Z,20.02
2019-05-11T08:13:58.410Z,19.99
2019-05-11T08:16:28.537Z,19.93
2019-05-11T08:18:58.956Z,20.13
2019-05-11T08:21:28.514Z,20.16
2019-05-11T08:23:58.714Z,20.23
2019-05-11T08:26:28.286Z,20.39
2019-05-11T08:28:58.023Z,20.50
2019-05-11T08:31:27.895Z,20.45
2019-05-11T08:33:58.277Z,20.38
2019-05-11T08:36:28.830Z,20.45
2019-05-11T08:38:58.607Z,20.33
2019-05-11T08:41:28.119Z,20.45
2019-05-11T08:43:58.736Z,20.64
2019-05-11T08:46:27.997Z,20.32
2019-05-11T08:48:56.727Z,20.49
2019-05-11T08:51:25.215Z,20.67
2019-05-11T08:53:53.684Z,20.89
2019-05-11T08:56:22.258Z,20.90
2019-05-11T08:58:50.860Z,20.59
2019-05-11T09:01:19.341Z,20.37
2019-05-11T09:03:48.100Z,20.15
2019-05-11T09:06:17.927Z,20.54
2019-05-11T09:08:49.097Z,20.68
2019-05-11T09:11:18.992Z,20.98
2019-05-11T09:13:48.907Z,20.81
2019-05-11T09:16:18.996Z,20.47
2019-05-11T09:18:48.193Z,20.53
2019-05-11T09:21:19.027Z,20.83
2019-05-11T09:23:48.621Z,20.71
2019-05-11T09:26:18.103Z,20.50
2019-05-11T09:28:47.649Z,20.39
2019-05-11T09:31:18.660Z,20.78
2019-05-11T09:33:47.944Z,20.87
2019-05-11T09:36:18.033Z,20.69
2019-05-11T09:38:48.930Z,20.96
2019-05-11T09:41:18.016Z,21.27
2019-05-11T09:43:48.275Z,21.41
2019-05-11T09:46:18.926Z,21.60
2019-05-11T09:48:48.323Z,21.69
2019-05-11T09:51:18.414Z,21.65
2019-05-11T09:53:48.377Z,21.30
2019-05-11T09:56:18.355Z,21.04
2019-05-11T09:58:48.042Z,20.81
2019-05-11T10:01:18.260Z,20.95
2019-05-11T10:03:48.085Z,21.13
2019-05-11T10:06:19.081Z,21.27
2019-05-11T10:08:48.771Z,21.45
2019-05-11T10:11:19.012Z,21.78
2019-05-11T10:13:47.920Z,21.49
2019-05-11T10:16:17.878Z,21.43
2019-05-11T10:18:49.044Z,21.67
2019-05-11T10:21:18.861Z,21.91
2019-05-11T10:23:48.937Z,21.93
2019-05-11T10:26:18.803Z,22.08
2019-05-11T10:28:48.358Z,22.09
2019-05-11T10:31:18.124Z,22.05
2019-05-11T10:33:49.028Z,21.87
2019-05-11T10:36:18.887Z,22.09
2019-05-11T10:38:48.716Z,22.22
2019-05-11T10:41:18.355Z,22.06
2019-05-11T10:43:48.893Z,22.31
2019-05-11T10:46:22.921Z,22.15
2019-05-11T10:48:48.492Z,22.22
2019-05-11T10:51:18.425Z,22.29
2019-05-11T10:53:51.349Z,22.27
2019-05-11T10:56:17.974Z,22.22
2019-05-11T10:58:48.193Z,22.27
2019-05-11T11:01:18.202Z,22.31
2019-05-11T11:03:48.335Z,22.42
2019-05-11T11:06:18.787Z,22.35
2019-05-11T11:08:48.617Z,22.40
2019-05-11T11:11:18.563Z,22.47
2019-05-11T11:13:48.094Z,22.46
2019-05-11T11:16:32.718Z,22.34
2019-05-11T11:18:48.564Z,22.35
2019-05-11T11:21:22.082Z,22.55
2019-05-11T11:23:48.290Z,22.57
2019-05-11T11:26:18.433Z,22.58
2019-05-11T11:28:47.767Z,22.58
2019-05-11T11:31:18.774Z,22.65
2019-05-11T11:33:48.884Z,22.75
2019-05-11T11:36:17.915Z,22.51
2019-05-11T11:38:47.833Z,22.66
2019-05-11T11:41:18.610Z,22.77
2019-05-11T11:43:48.363Z,22.79
2019-05-11T11:46:18.739Z,22.75
2019-05-11T11:48:48.988Z,22.71
2019-05-11T11:51:18.809Z,22.84
2019-05-11T11:53:47.939Z,22.81
2019-05-11T11:56:18.874Z,22.79
2019-05-11T11:58:48.840Z,22.86
2019-05-11T12:01:18.941Z,22.91
2019-05-11T12:03:48.754Z,22.93
2019-05-11T12:06:18.409Z,23.05
2019-05-11T12:08:49.764Z,22.95
2019-05-11T12:11:18.778Z,22.92
2019-05-11T12:13:47.776Z,22.93
2019-05-11T12:16:17.983Z,22.99
2019-05-11T12:18:48.613Z,22.96
2019-05-11T12:21:18.582Z,22.79
2019-05-11T12:23:48.628Z,22.73
2019-05-11T12:26:17.869Z,22.98
2019-05-11T12:28:48.717Z,23.03
2019-05-11T12:31:18.344Z,22.88
2019-05-11T12:33:48.197Z,22.91
2019-05-11T12:36:18.696Z,22.72
2019-05-11T12:38:48.901Z,22.62
2019-05-11T12:41:19.075Z,22.58
2019-05-11T12:43:48.959Z,22.85
2019-05-11T12:46:19.467Z,23.08
2019-05-11T12:48:48.790Z,22.98
2019-05-11T12:51:18.622Z,23.05
2019-05-11T12:53:47.936Z,23.03
2019-05-11T12:56:18.901Z,23.15
2019-05-11T12:58:48.937Z,23.16
2019-05-11T13:01:18.834Z,23.16
2019-05-11T13:03:49.254Z,23.14
2019-05-11T13:06:19.080Z,23.05
2019-05-11T13:08:48.347Z,23.08
2019-05-11T13:11:18.690Z,23.11
2019-05-11T13:13:48.352Z,23.18
2019-05-11T13:16:18.392Z,23.27
2019-05-11T13:18:48.781Z,23.31
2019-05-11T13:21:18.245Z,23.28
2019-05-11T13:23:48.863Z,23.25
2019-05-11T13:26:18.050Z,23.30
2019-05-11T13:28:48.362Z,23.24
2019-05-11T13:31:18.705Z,23.24
2019-05-11T13:33:48.126Z,23.41
2019-05-11T13:36:18.554Z,23.26
2019-05-11T13:38:48.402Z,23.29
2019-05-11T13:41:18.774Z,23.21
2019-05-11T13:43:48.578Z,23.36
2019-05-11T13:46:18.124Z,23.39
2019-05-11T13:48:47.595Z,23.50
2019-05-11T13:51:18.271Z,23.52
2019-05-11T13:53:48.223Z,23.36
2019-05-11T13:56:18.441Z,23.33
2019-05-11T13:58:48.743Z,23.47
2019-05-11T14:01:18.494Z,23.44
2019-05-11T14:03:48.474Z,23.45
2019-05-11T14:06:18.379Z,23.43
2019-05-11T14:08:48.183Z,23.46
2019-05-11T14:11:18.289Z,23.55
2019-05-11T14:13:47.969Z,23.44
2019-05-11T14:16:18.546Z,23.46
2019-05-11T14:18:48.893Z,23.46
2019-05-11T14:21:18.615Z,23.46
2019-05-11T14:23:48.489Z,23.33
2019-05-11T14:26:19.255Z,23.30
2019-05-11T14:28:48.160Z,23.35
2019-05-11T14:31:18.971Z,23.39
2019-05-11T14:33:48.851Z,23.33
2019-05-11T14:36:18.418Z,23.39
2019-05-11T14:38:48.729Z,23.26
2019-05-11T14:41:18.343Z,23.43
2019-05-11T14:43:49.004Z,23.44
2019-05-11T14:46:18.263Z,23.23
2019-05-11T14:48:48.089Z,23.22
2019-05-11T14:51:18.105Z,23.21
2019-05-11T14:53:48.151Z,23.31
2019-05-11T14:56:19.087Z,23.34
2019-05-11T14:58:49.281Z,23.18
2019-05-11T15:01:18.432Z,23.25
2019-05-11T15:03:48.571Z,23.35
2019-05-11T15:06:18.835Z,23.34
2019-05-11T15:08:48.060Z,23.22
2019-05-11T15:11:18.866Z,23.20
2019-05-11T15:13:48.893Z,23.13
2019-05-11T15:16:18.656Z,23.10
2019-05-11T15:18:48.452Z,23.08
2019-05-11T15:21:19.006Z,23.06
2019-05-11T15:23:47.936Z,23.09
2019-05-11T15:26:18.672Z,23.17
2019-05-11T15:28:48.585Z,23.19
2019-05-11T15:31:22.220Z,23.16
2019-05-11T15:33:48.915Z,23.08
2019-05-11T15:36:19.333Z,23.08
2019-05-11T15:38:48.354Z,23.05
2019-05-11T15:41:17.780Z,23.13
2019-05-11T15:43:47.932Z,23.02
2019-05-11T15:46:19.451Z,23.03
2019-05-11T15:48:56.632Z,23.00
2019-05-11T15:51:18.753Z,22.98
2019-05-11T15:53:50.243Z,22.92
2019-05-11T15:56:19.135Z,22.99
2019-05-11T15:58:48.708Z,22.90
2019-05-11T16:01:18.593Z,22.92
2019-05-11T16:03:50.004Z,22.93
2019-05-11T16:06:18.546Z,22.90
2019-05-11T16:08:47.404Z,22.88
2019-05-11T16:11:17.976Z,22.87
2019-05-11T16:13:48.470Z,22.84
2019-05-11T16:16:16.938Z,22.80
2019-05-11T16:18:45.452Z,22.81
2019-05-11T16:21:13.932Z,22.77
2019-05-11T16:23:42.514Z,22.76
2019-05-11T16:26:11.108Z,22.68
2019-05-11T16:28:39.746Z,22.61
2019-05-11T16:31:09.240Z,22.68
2019-05-11T16:33:38.039Z,22.61
2019-05-11T16:36:08.997Z,22.66
2019-05-11T16:38:37.966Z,22.59
2019-05-11T16:41:09.091Z,22.65
2019-05-11T16:43:38.565Z,22.59
2019-05-11T16:46:08.632Z,22.54
2019-05-11T16:48:38.261Z,22.38
2019-05-11T16:51:08.703Z,22.42
2019-05-11T16:53:39.002Z,22.35
2019-05-11T16:56:08.532Z,22.41
2019-05-11T16:58:38.150Z,22.55
2019-05-11T17:01:08.580Z,22.41
2019-05-11T17:03:38.463Z,22.40
2019-05-11T17:06:08.277Z,21.93
2019-05-11T17:08:38.356Z,21.96
2019-05-11T17:11:08.169Z,21.94
2019-05-11T17:13:37.996Z,22.07
2019-05-11T17:16:08.746Z,22.03
2019-05-11T17:18:37.328Z,22.08
2019-05-11T17:21:07.795Z,22.37
2019-05-11T17:23:38.457Z,21.96
2019-05-11T17:26:08.759Z,21.94
2019-05-11T17:28:38.452Z,22.09
2019-05-11T17:31:07.994Z,21.86
2019-05-11T17:33:38.470Z,21.83
2019-05-11T17:36:08.465Z,21.48
2019-05-11T17:38:38.929Z,21.26
2019-05-11T17:41:08.478Z,21.55
2019-05-11T17:43:38.668Z,21.61
2019-05-11T17:46:08.027Z,21.31
2019-05-11T17:48:38.814Z,21.44
2019-05-11T17:51:20.620Z,21.36
2019-05-11T17:53:37.898Z,21.18
2019-05-11T17:56:06.574Z,21.23
2019-05-11T17:58:37.650Z,21.34
2019-05-11T18:01:05.923Z,21.10
2019-05-11T18:03:34.505Z,21.18
2019-05-11T18:06:03.131Z,21.20
2019-05-11T18:08:31.741Z,21.51
2019-05-11T18:11:00.335Z,21.16
2019-05-11T18:13:28.913Z,20.71
2019-05-11T18:15:57.909Z,20.87
2019-05-11T18:18:28.923Z,20.56
2019-05-11T18:20:57.875Z,20.68
2019-05-11T18:23:28.243Z,20.69
2019-05-11T18:25:56.960Z,20.53
2019-05-11T18:28:25.567Z,20.58
2019-05-11T18:30:54.069Z,20.63
2019-05-11T18:33:22.650Z,20.61
2019-05-11T18:35:51.226Z,20.78
2019-05-11T18:38:19.782Z,20.73
2019-05-11T18:40:48.709Z,20.24
2019-05-11T18:43:18.845Z,20.32
2019-05-11T18:45:48.848Z,20.35
2019-05-11T18:48:18.550Z,19.79
2019-05-11T18:50:49.122Z,19.83
2019-05-11T18:53:18.619Z,19.36
2019-05-11T18:55:48.618Z,19.52
2019-05-11T18:58:18.532Z,19.73
2019-05-11T19:00:48.817Z,19.61
2019-05-11T19:03:19.280Z,19.61
2019-05-11T19:05:48.293Z,19.34
2019-05-11T19:08:18.936Z,19.44
2019-05-11T19:10:48.765Z,19.52
2019-05-11T19:13:17.618Z,19.42
2019-05-11T19:15:48.498Z,19.19
2019-05-11T19:18:16.771Z,19.23
2019-05-11T19:20:47.072Z,19.00
2019-05-11T19:23:15.728Z,19.15
2019-05-11T19:25:44.309Z,19.06
2019-05-11T19:28:12.901Z,19.24
2019-05-11T19:30:41.306Z,19.14
2019-05-11T19:33:11.307Z,19.34
2019-05-11T19:35:39.988Z,19.28
2019-05-11T19:38:08.875Z,18.97
2019-05-11T19:40:38.344Z,19.02
2019-05-11T19:43:08.101Z,18.90
2019-05-11T19:45:38.463Z,18.85
2019-05-11T19:48:08.339Z,19.05
2019-05-11T19:50:40.350Z,18.85
2019-05-11T19:53:08.401Z,18.81
2019-05-11T19:55:37.461Z,18.68
2019-05-11T19:58:05.943Z,18.62
2019-05-11T20:00:34.538Z,18.65
2019-05-11T20:03:06.026Z,18.19
2019-05-11T20:05:34.736Z,18.12
2019-05-11T20:08:03.351Z,18.15
2019-05-11T20:10:33.330Z,18.30
2019-05-11T20:13:02.248Z,18.16
2019-05-11T20:15:30.830Z,18.44
2019-05-11T20:17:59.457Z,18.19
2019-05-11T20:20:28.562Z,18.19
2019-05-11T20:22:58.493Z,18.19
2019-05-11T20:25:28.889Z,18.07
2019-05-11T20:27:58.498Z,18.03
2019-05-11T20:30:27.213Z,17.83
2019-05-11T20:32:55.815Z,18.01
2019-05-11T20:35:24.405Z,18.20
2019-05-11T20:37:52.997Z,18.29
2019-05-11T20:40:21.493Z,18.23
2019-05-11T20:42:50.005Z,17.93
2019-05-11T20:45:19.011Z,18.21
2019-05-11T20:47:48.716Z,17.95
2019-05-11T20:50:18.559Z,18.21
2019-05-11T20:52:48.102Z,18.20
2019-05-11T20:55:18.294Z,18.09
2019-05-11T20:57:48.254Z,17.98
2019-05-11T21:00:19.094Z,17.94
2019-05-11T21:02:48.673Z,17.92
2019-05-11T21:05:18.247Z,17.97
2019-05-11T21:07:46.959Z,17.20
2019-05-11T21:10:15.805Z,17.16
2019-05-11T21:12:44.283Z,17.61
2019-05-11T21:15:14.697Z,17.58
2019-05-11T21:17:43.376Z,17.26
2019-05-11T21:20:12.166Z,17.39
2019-05-11T21:22:40.980Z,16.96
2019-05-11T21:25:10.068Z,17.07
2019-05-11T21:27:38.864Z,17.28
2019-05-11T21:30:09.071Z,17.09
2019-05-11T21:32:38.567Z,17.36
2019-05-11T21:35:08.851Z,17.44
2019-05-11T21:37:38.825Z,17.11
2019-05-11T21:40:08.737Z,17.08
2019-05-11T21:42:38.893Z,17.00
2019-05-11T21:45:09.369Z,17.16
2019-05-11T21:47:38.984Z,17.07
2019-05-11T21:50:08.528Z,17.16
2019-05-11T21:52:38.369Z,17.29
2019-05-11T21:55:09.303Z,17.07
2019-05-11T21:57:38.360Z,16.98
2019-05-11T22:00:09.324Z,16.91
2019-05-11T22:02:38.623Z,16.87
2019-05-11T22:05:08.266Z,16.99
2019-05-11T22:07:38.941Z,17.12
2019-05-11T22:10:08.833Z,17.05
2019-05-11T22:12:38.724Z,17.05
2019-05-11T22:15:09.715Z,16.87
2019-05-11T22:17:39.205Z,16.53
2019-05-11T22:20:08.863Z,16.44
2019-05-11T22:22:39.073Z,16.71
2019-05-11T22:25:08.599Z,16.75
2019-05-11T22:27:38.927Z,17.07
2019-05-11T22:30:08.870Z,16.73
2019-05-11T22:32:38.341Z,16.49
2019-05-11T22:35:07.712Z,16.13
2019-05-11T22:37:38.554Z,16.32
2019-05-11T22:40:08.295Z,16.23
2019-05-11T22:42:37.301Z,16.34
2019-05-11T22:45:08.587Z,16.46
2019-05-11T22:47:39.405Z,16.47
2019-05-11T22:50:08.265Z,16.56
2019-05-11T22:52:39.818Z,16.55
2019-05-11T22:55:11.370Z,16.31
2019-05-11T22:57:38.654Z,16.33
2019-05-11T23:00:09.216Z,16.57
2019-05-11T23:02:38.264Z,16.36
2019-05-11T23:05:08.537Z,16.33
2019-05-11T23:07:37.686Z,16.39
2019-05-11T23:10:09.043Z,16.16
2019-05-11T23:12:38.338Z,15.76
2019-05-11T23:15:12.267Z,15.71
2019-05-11T23:17:41.221Z,16.04
2019-05-11T23:20:10.331Z,16.28
2019-05-11T23:22:56.836Z,16.20
2019-05-11T23:25:18.548Z,15.86
2019-05-11T23:27:48.521Z,15.90
2019-05-11T23:30:19.612Z,16.07
2019-05-11T23:32:48.874Z,16.17
2019-05-11T23:35:18.715Z,15.97
2019-05-11T23:37:49.515Z,15.86
2019-05-11T23:40:19.185Z,15.55
2019-05-11T23:42:49.083Z,15.99
2019-05-11T23:45:19.357Z,15.67
2019-05-11T23:47:48.845Z,15.31
2019-05-11T23:50:18.972Z,15.39
2019-05-11T23:52:48.795Z,15.64
2019-05-11T23:55:19.193Z,15.42
2019-05-11T23:57:48.745Z,15.70
